Time;durP1;ratioP1;P1;durP2;ratioP2;P2;SDS_P1;SDS_P2;PMS_P1;PMS_P2;Temp;Humidity;BMP_temperature;BMP_pressure;BME280_temperature;BME280_humidity;BME280_pressure;Samples;Min_cycle;Max_cycle;Signal;HPM_P1;HPM_P2
2022/12/31 00:00:27;;;;;;;0.63;0.60;;;;;10.90;93794.00;;;;7398219;19;20551;-76
2022/12/31 00:03:01;;;;;;;0.35;0.35;;;;;10.90;93804.00;;;;7398439;19;20180;-76
2022/12/31 00:05:52;;;;;;;0.40;0.40;;;;;11.00;93800.00;;;;7398931;19;20607;-75
2022/12/31 00:08:19;;;;;;;1.05;0.63;;;;;11.00;93814.00;;;;7397743;19;20132;-76
2022/12/31 00:10:53;;;;;;;7.22;0.93;;;;;10.90;93816.00;;;;7399302;19;20185;-77
2022/12/31 00:13:20;;;;;;;0.30;0.30;;;;;11.00;93830.00;;;;7400465;19;20465;-77
2022/12/31 00:15:48;;;;;;;0.40;0.40;;;;;11.00;93825.00;;;;7400949;19;20141;-77
2022/12/31 00:18:22;;;;;;;1.17;0.40;;;;;10.90;93827.00;;;;7399491;19;20144;-76
2022/12/31 00:20:49;;;;;;;0.43;0.43;;;;;11.00;93846.00;;;;7398807;19;20136;-75
2022/12/31 00:23:17;;;;;;;2.22;0.95;;;;;10.90;93829.00;;;;7398953;19;20648;-76
2022/12/31 00:25:57;;;;;;;0.50;0.50;;;;;11.00;93825.00;;;;7399510;19;20144;-76
2022/12/31 00:28:33;;;;;;;1.98;0.60;;;;;11.00;93835.00;;;;7401877;19;20146;-76
2022/12/31 00:31:14;;;;;;;0.57;0.57;;;;;11.00;93849.00;;;;7399842;19;20135;-75
2022/12/31 00:33:42;;;;;;;1.17;0.60;;;;;11.00;93855.00;;;;7398752;19;20151;-77
2022/12/31 00:36:18;;;;;;;0.60;0.60;;;;;11.00;93839.00;;;;7393990;19;20630;-76
2022/12/31 00:38:49;;;;;;;0.50;0.50;;;;;11.00;93851.00;;;;7390494;19;20148;-77
2022/12/31 00:41:24;;;;;;;0.40;0.40;;;;;11.00;93833.00;;;;7398458;19;20136;-76
2022/12/31 00:43:54;;;;;;;2.28;0.47;;;;;11.00;93857.00;;;;7400645;19;20129;-77
2022/12/31 00:46:21;;;;;;;0.82;0.65;;;;;11.00;93857.00;;;;7398352;19;20615;-76
2022/12/31 00:48:55;;;;;;;0.40;0.38;;;;;11.00;93864.00;;;;7397963;19;20121;-75
2022/12/31 00:51:26;;;;;;;0.75;0.60;;;;;11.10;93868.00;;;;7399659;19;20133;-77
2022/12/31 00:53:55;;;;;;;0.30;0.30;;;;;11.10;93870.00;;;;7397899;19;20152;-76
2022/12/31 00:56:30;;;;;;;1.95;0.55;;;;;11.10;93874.00;;;;7398792;19;20167;-76
2022/12/31 00:58:59;;;;;;;0.35;0.35;;;;;11.00;93861.00;;;;7397710;19;20175;-76
2022/12/31 01:01:39;;;;;;;0.35;0.30;;;;;11.10;93876.00;;;;7397102;19;20137;-77
2022/12/31 01:04:16;;;;;;;0.40;0.40;;;;;11.10;93881.00;;;;7399037;19;20171;-75
2022/12/31 01:06:44;;;;;;;3.30;0.68;;;;;11.00;93892.00;;;;7398667;19;20133;-75
2022/12/31 01:09:13;;;;;;;0.60;0.57;;;;;11.10;93905.00;;;;7397217;19;20521;-77
2022/12/31 01:11:50;;;;;;;0.55;0.45;;;;;10.90;93895.00;;;;7395281;19;20489;-76
2022/12/31 01:14:19;;;;;;;0.52;0.52;;;;;11.00;93899.00;;;;7398124;19;20135;-74
2022/12/31 01:16:52;;;;;;;1.58;0.50;;;;;11.10;93914.00;;;;7398013;19;20211;-75
2022/12/31 01:19:29;;;;;;;1.00;0.70;;;;;11.00;93927.00;;;;7398671;19;20151;-78
2022/12/31 01:21:56;;;;;;;0.50;0.50;;;;;11.10;93931.00;;;;7398517;19;20154;-77
2022/12/31 01:24:26;;;;;;;0.60;0.60;;;;;11.10;93931.00;;;;7399630;19;20212;-78
2022/12/31 01:27:06;;;;;;;1.25;0.70;;;;;11.10;93931.00;;;;7396966;19;20235;-77
2022/12/31 01:29:33;;;;;;;0.60;0.60;;;;;11.10;93938.00;;;;7400151;19;20128;-75
2022/12/31 01:32:07;;;;;;;1.20;0.70;;;;;11.00;93939.00;;;;7397505;19;20145;-74
2022/12/31 01:34:37;;;;;;;1.30;0.70;;;;;11.10;93934.00;;;;7397182;19;20652;-75
2022/12/31 01:37:04;;;;;;;1.77;0.70;;;;;11.00;93947.00;;;;7396799;19;20152;-74
2022/12/31 01:39:38;;;;;;;0.52;0.52;;;;;10.80;93943.00;;;;7396977;19;20152;-75
2022/12/31 01:42:09;;;;;;;0.93;0.77;;;;;10.80;93948.00;;;;7395245;19;20216;-76
2022/12/31 01:44:36;;;;;;;1.27;0.73;;;;;11.00;93940.00;;;;7399106;19;20140;-76
2022/12/31 01:47:18;;;;;;;0.77;0.77;;;;;10.90;93959.00;;;;7397738;19;20461;-77
2022/12/31 01:49:53;;;;;;;2.33;0.90;;;;;10.90;93952.00;;;;7397517;19;20519;-76
2022/12/31 01:52:37;;;;;;;0.75;0.70;;;;;10.90;93948.00;;;;7396960;19;20464;-75
2022/12/31 01:55:37;;;;;;;2.33;1.00;;;;;10.90;93948.00;;;;7396747;19;20128;-75
2022/12/31 01:58:19;;;;;;;2.47;0.93;;;;;11.10;93939.00;;;;7398256;19;20204;-75
2022/12/31 02:00:50;;;;;;;4.03;0.80;;;;;10.90;93955.00;;;;7396005;19;20156;-73
2022/12/31 02:03:30;;;;;;;1.13;0.90;;;;;11.10;93951.00;;;;7374784;19;20195;-72
2022/12/31 02:06:15;;;;;;;1.38;0.73;;;;;11.10;93954.00;;;;7396360;19;20151;-72
2022/12/31 02:08:50;;;;;;;1.55;0.80;;;;;11.10;93951.00;;;;7396825;19;20133;-73
2022/12/31 02:11:24;;;;;;;0.93;0.80;;;;;11.10;93953.00;;;;7389340;19;20133;-72
2022/12/31 02:14:03;;;;;;;2.90;0.90;;;;;11.10;93953.00;;;;7395545;19;20165;-72
2022/12/31 02:16:42;;;;;;;1.50;0.57;;;;;11.10;93949.00;;;;7396734;19;20169;-72
2022/12/31 02:19:36;;;;;;;3.28;1.08;;;;;11.30;93956.00;;;;7398274;19;20141;-72
2022/12/31 02:22:44;;;;;;;1.85;0.88;;;;;11.20;93960.00;;;;7397601;19;20137;-73
2022/12/31 02:25:48;;;;;;;2.03;0.80;;;;;11.20;93972.00;;;;7397625;19;20462;-72
2022/12/31 02:28:18;;;;;;;2.38;1.00;;;;;11.30;93964.00;;;;7397411;19;20539;-72
2022/12/31 02:31:15;;;;;;;2.78;0.80;;;;;11.40;93970.00;;;;7397298;19;20167;-71
2022/12/31 02:34:07;;;;;;;1.90;0.80;;;;;11.40;93959.00;;;;7403281;19;20289;-72
2022/12/31 02:36:45;;;;;;;1.92;1.10;;;;;11.50;93964.00;;;;7403528;19;20137;-71
2022/12/31 02:39:13;;;;;;;3.08;1.10;;;;;11.50;93970.00;;;;7403275;19;20132;-72
2022/12/31 02:41:50;;;;;;;5.65;1.40;;;;;11.40;93963.00;;;;7402570;19;20113;-72
2022/12/31 02:44:33;;;;;;;1.15;1.05;;;;;11.50;93957.00;;;;7404595;19;20531;-71
2022/12/31 02:47:18;;;;;;;2.28;0.82;;;;;11.60;93949.00;;;;7405842;19;20116;-71
2022/12/31 02:50:24;;;;;;;3.53;0.75;;;;;11.90;93942.00;;;;7402925;19;20124;-71
2022/12/31 02:53:13;;;;;;;4.75;0.80;;;;;12.00;93944.00;;;;7402713;19;20591;-71
2022/12/31 02:56:19;;;;;;;2.55;0.70;;;;;12.00;93950.00;;;;7398071;19;20137;-71
2022/12/31 03:02:15;;;;;;;2.50;0.93;;;;;11.70;93967.00;;;;7401550;19;20121;-71
2022/12/31 03:05:08;;;;;;;0.95;0.70;;;;;11.90;93945.00;;;;7399513;19;20652;-71
2022/12/31 03:07:44;;;;;;;1.20;0.82;;;;;11.70;93940.00;;;;7404391;19;20125;-72
2022/12/31 03:10:11;;;;;;;0.65;0.65;;;;;11.50;93959.00;;;;7402507;19;20164;-72
2022/12/31 03:12:47;;;;;;;6.20;1.08;;;;;11.40;93964.00;;;;7402373;19;20940;-72
2022/12/31 03:15:32;;;;;;;3.83;0.80;;;;;11.40;93968.00;;;;7402457;19;20156;-72
2022/12/31 03:22:26;;;;;;;1.20;0.75;;;;;11.40;93971.00;;;;7404042;19;20131;-71
2022/12/31 03:26:58;;;;;;;1.48;1.00;;;;;12.20;93968.00;;;;7402835;19;20200;-72
2022/12/31 03:29:30;;;;;;;0.95;0.80;;;;;12.30;93968.00;;;;7403187;19;20590;-71
2022/12/31 03:31:57;;;;;;;1.17;0.52;;;;;12.50;93957.00;;;;7403778;19;20128;-72
2022/12/31 03:34:31;;;;;;;3.10;0.50;;;;;12.40;93971.00;;;;7402056;19;20184;-71
2022/12/31 03:36:59;;;;;;;1.67;0.60;;;;;12.40;93971.00;;;;7403817;19;20157;-72
2022/12/31 03:39:26;;;;;;;0.60;0.60;;;;;12.50;93972.00;;;;7403847;19;20139;-71
2022/12/31 03:42:03;;;;;;;0.50;0.50;;;;;12.40;93968.00;;;;7401786;19;20125;-71
2022/12/31 03:44:30;;;;;;;2.40;0.80;;;;;12.50;93953.00;;;;7401632;19;20577;-72
2022/12/31 03:46:57;;;;;;;0.77;0.63;;;;;12.50;93957.00;;;;7403220;19;20479;-71
2022/12/31 03:49:33;;;;;;;1.38;0.80;;;;;12.50;93963.00;;;;7403261;19;20125;-71
2022/12/31 03:52:02;;;;;;;1.67;0.90;;;;;12.60;93968.00;;;;7403490;19;20150;-71
2022/12/31 03:54:29;;;;;;;0.88;0.57;;;;;12.60;93972.00;;;;7403345;19;20137;-72
2022/12/31 03:57:03;;;;;;;1.58;0.52;;;;;12.70;93968.00;;;;7401043;19;20140;-72
2022/12/31 03:59:31;;;;;;;2.40;0.82;;;;;12.80;93975.00;;;;7403070;19;20176;-72
2022/12/31 04:01:58;;;;;;;0.80;0.60;;;;;13.00;93973.00;;;;7399179;19;20157;-73
2022/12/31 04:04:39;;;;;;;1.05;0.55;;;;;13.10;93970.00;;;;7399807;19;20192;-72
2022/12/31 04:07:07;;;;;;;0.55;0.45;;;;;13.00;93975.00;;;;7400473;19;20682;-72
2022/12/31 04:09:41;;;;;;;0.45;0.40;;;;;12.90;93986.00;;;;7401109;19;20157;-72
2022/12/31 04:12:08;;;;;;;0.60;0.50;;;;;12.90;93963.00;;;;7400438;19;20497;-74
2022/12/31 04:14:37;;;;;;;0.98;0.40;;;;;13.00;93954.00;;;;7399794;19;20579;-74
2022/12/31 04:17:13;;;;;;;0.90;0.80;;;;;12.70;93960.00;;;;7400907;19;20559;-72
2022/12/31 04:19:42;;;;;;;0.90;0.60;;;;;12.80;93965.00;;;;7400555;19;20140;-73
2022/12/31 04:22:09;;;;;;;0.85;0.40;;;;;12.90;93978.00;;;;7400808;19;20145;-72
2022/12/31 04:24:44;;;;;;;0.60;0.60;;;;;13.00;93973.00;;;;7400612;19;20131;-72
2022/12/31 04:27:13;;;;;;;0.93;0.60;;;;;13.10;93979.00;;;;7400949;19;20153;-72
2022/12/31 04:29:43;;;;;;;0.52;0.50;;;;;13.10;93972.00;;;;7400444;19;20144;-73
2022/12/31 04:32:18;;;;;;;0.50;0.50;;;;;13.00;93979.00;;;;7400683;19;20520;-73
2022/12/31 04:34:45;;;;;;;1.02;0.45;;;;;13.20;93986.00;;;;7399167;19;20152;-72
2022/12/31 04:37:12;;;;;;;1.67;0.50;;;;;13.30;93995.00;;;;7401726;19;20125;-72
2022/12/31 04:39:47;;;;;;;2.03;0.45;;;;;13.00;93989.00;;;;7400278;19;20149;-73
2022/12/31 04:42:14;;;;;;;2.35;0.70;;;;;12.60;94003.00;;;;7399483;19;20128;-73
2022/12/31 04:44:41;;;;;;;1.10;0.90;;;;;12.10;94009.00;;;;7398941;19;20113;-73
2022/12/31 04:47:16;;;;;;;0.75;0.68;;;;;11.90;94011.00;;;;7398687;19;20609;-72
2022/12/31 04:49:50;;;;;;;1.30;1.02;;;;;11.90;94006.00;;;;7396444;19;20121;-72
2022/12/31 04:52:24;;;;;;;0.98;0.80;;;;;11.70;94016.00;;;;7400147;19;20200;-73
2022/12/31 04:54:51;;;;;;;0.90;0.90;;;;;11.60;94014.00;;;;7399398;19;20137;-74
2022/12/31 04:57:18;;;;;;;1.38;0.85;;;;;11.60;94001.00;;;;7400728;19;20230;-74
2022/12/31 04:59:54;;;;;;;0.95;0.95;;;;;11.60;94030.00;;;;7399607;19;20144;-73
2022/12/31 05:02:21;;;;;;;4.72;0.80;;;;;11.50;94027.00;;;;7397991;19;20607;-73
2022/12/31 05:04:51;;;;;;;0.98;0.77;;;;;11.50;94032.00;;;;7399067;19;20176;-76
2022/12/31 05:07:25;;;;;;;1.23;1.02;;;;;11.50;94034.00;;;;7398930;19;20133;-74
2022/12/31 05:09:52;;;;;;;0.98;0.98;;;;;11.50;94036.00;;;;7399841;19;20133;-73
2022/12/31 05:12:20;;;;;;;1.25;0.95;;;;;11.70;94039.00;;;;7398230;19;20624;-73
2022/12/31 05:14:55;;;;;;;0.90;0.80;;;;;11.70;94033.00;;;;7398468;19;20170;-73
2022/12/31 05:17:23;;;;;;;3.28;1.20;;;;;11.70;94034.00;;;;7398947;19;20463;-73
2022/12/31 05:19:50;;;;;;;1.65;1.00;;;;;11.70;94046.00;;;;7399707;19;20635;-73
2022/12/31 05:22:30;;;;;;;1.23;1.08;;;;;11.60;94045.00;;;;7396879;19;20917;-73
2022/12/31 05:24:58;;;;;;;1.35;0.90;;;;;11.70;94047.00;;;;7397828;19;20152;-73
2022/12/31 05:27:32;;;;;;;1.20;0.98;;;;;11.60;94039.00;;;;7399961;19;20132;-73
2022/12/31 05:30:00;;;;;;;1.23;1.00;;;;;11.50;94052.00;;;;7398366;19;20603;-73
2022/12/31 05:32:27;;;;;;;1.10;1.00;;;;;11.70;94049.00;;;;7399680;19;20587;-74
2022/12/31 05:35:01;;;;;;;1.08;1.02;;;;;11.60;94043.00;;;;7398159;19;20677;-74
2022/12/31 05:37:29;;;;;;;2.03;0.90;;;;;11.70;94047.00;;;;7398633;19;20129;-73
2022/12/31 05:39:57;;;;;;;1.92;0.90;;;;;11.70;94043.00;;;;7398225;19;20137;-73
2022/12/31 05:42:31;;;;;;;15.02;1.75;;;;;11.70;94052.00;;;;7395639;19;20148;-74
2022/12/31 05:44:58;;;;;;;1.00;1.00;;;;;11.60;94054.00;;;;7397774;19;20133;-73
2022/12/31 05:47:26;;;;;;;0.90;0.90;;;;;11.70;94045.00;;;;7398703;19;20160;-73
2022/12/31 05:50:03;;;;;;;3.25;1.10;;;;;11.80;94044.00;;;;7397351;19;20583;-73
2022/12/31 05:52:31;;;;;;;1.00;0.80;;;;;11.60;94058.00;;;;7397980;19;20129;-74
2022/12/31 05:54:58;;;;;;;2.20;1.17;;;;;11.80;94056.00;;;;7396319;19;20546;-74
2022/12/31 05:57:35;;;;;;;2.20;1.10;;;;;11.70;94060.00;;;;7396847;19;20128;-74
2022/12/31 06:00:05;;;;;;;2.25;1.60;;;;;11.60;94064.00;;;;7396994;19;20153;-74
2022/12/31 06:02:35;;;;;;;1.58;1.00;;;;;11.60;94070.00;;;;7396159;19;20155;-74
2022/12/31 06:05:24;;;;;;;3.90;1.10;;;;;11.60;94081.00;;;;7396765;19;20159;-74
2022/12/31 06:07:52;;;;;;;1.65;1.20;;;;;11.60;94083.00;;;;7407128;19;20117;-73
2022/12/31 06:10:26;;;;;;;1.15;1.05;;;;;11.50;94085.00;;;;7396162;19;21665;-74
2022/12/31 06:12:54;;;;;;;2.72;1.08;;;;;11.70;94075.00;;;;7404354;19;20216;-74
2022/12/31 06:15:42;;;;;;;1.88;1.13;;;;;11.70;94088.00;;;;7404656;19;20136;-74
2022/12/31 06:18:15;;;;;;;3.88;1.75;;;;;11.80;94070.00;;;;7405977;19;20129;-73
2022/12/31 06:20:45;;;;;;;1.65;1.17;;;;;11.70;94076.00;;;;7404335;19;20163;-73
2022/12/31 06:23:15;;;;;;;6.70;1.23;;;;;11.70;94096.00;;;;7403560;19;20496;-74
2022/12/31 06:25:49;;;;;;;1.45;1.30;;;;;11.70;94091.00;;;;7404738;19;20171;-73
2022/12/31 06:28:16;;;;;;;1.40;1.30;;;;;11.70;94091.00;;;;7405619;19;20129;-73
2022/12/31 06:30:47;;;;;;;1.55;1.05;;;;;11.60;94104.00;;;;7405387;19;20142;-73
2022/12/31 06:33:20;;;;;;;2.03;1.10;;;;;11.60;94084.00;;;;7406096;19;20613;-73
2022/12/31 06:35:48;;;;;;;1.38;1.10;;;;;11.60;94076.00;;;;7403538;19;20207;-73
2022/12/31 06:38:15;;;;;;;1.20;1.10;;;;;11.70;94086.00;;;;7403892;19;20159;-73
2022/12/31 06:40:49;;;;;;;4.13;1.08;;;;;11.70;94080.00;;;;7403843;19;20132;-73
2022/12/31 06:43:17;;;;;;;1.70;1.20;;;;;11.60;94075.00;;;;7403639;19;20141;-73
2022/12/31 06:45:44;;;;;;;1.25;1.15;;;;;11.70;94089.00;;;;7403337;19;20619;-73
2022/12/31 06:48:18;;;;;;;6.00;1.20;;;;;11.70;94075.00;;;;7402712;19;20169;-73
2022/12/31 06:50:46;;;;;;;1.10;1.00;;;;;11.70;94091.00;;;;7403193;19;20588;-73
2022/12/31 06:53:14;;;;;;;2.00;1.27;;;;;11.80;94075.00;;;;7402141;19;20176;-76
2022/12/31 06:55:49;;;;;;;1.10;1.00;;;;;11.80;94085.00;;;;7403032;19;20611;-73
2022/12/31 06:58:17;;;;;;;1.00;0.90;;;;;11.70;94080.00;;;;7402508;19;20881;-73
2022/12/31 07:01:02;;;;;;;1.67;1.02;;;;;11.80;94075.00;;;;7401944;19;20476;-73
2022/12/31 07:04:02;;;;;;;1.05;1.00;;;;;11.80;94088.00;;;;7401291;19;20186;-73
2022/12/31 07:06:59;;;;;;;1.38;1.20;;;;;11.90;94089.00;;;;7403707;19;20145;-73
2022/12/31 07:09:51;;;;;;;1.25;0.90;;;;;11.90;94092.00;;;;7403766;19;20640;-72
2022/12/31 07:12:54;;;;;;;3.08;1.25;;;;;11.80;94098.00;;;;7402910;19;20184;-73
2022/12/31 07:16:05;;;;;;;1.60;1.00;;;;;11.70;94098.00;;;;7402602;19;20152;-72
2022/12/31 07:18:46;;;;;;;2.88;1.13;;;;;11.80;94101.00;;;;7399946;19;20137;-72
2022/12/31 07:21:34;;;;;;;1.30;1.08;;;;;11.80;94110.00;;;;7403088;19;20603;-73
2022/12/31 07:24:04;;;;;;;1.58;0.90;;;;;11.80;94113.00;;;;7399533;19;20583;-73
2022/12/31 07:27:05;;;;;;;1.35;0.90;;;;;11.70;94120.00;;;;7402300;19;20468;-74
2022/12/31 07:29:41;;;;;;;1.60;1.08;;;;;11.80;94115.00;;;;7404186;19;20473;-73
2022/12/31 07:32:56;;;;;;;1.17;0.80;;;;;11.90;94124.00;;;;7402970;19;20152;-73
2022/12/31 07:35:31;;;;;;;2.45;1.20;;;;;11.90;94130.00;;;;7402393;19;20169;-74
2022/12/31 07:38:30;;;;;;;1.00;0.90;;;;;12.00;94131.00;;;;7402891;19;20553;-73
2022/12/31 07:41:23;;;;;;;2.15;0.90;;;;;12.10;94123.00;;;;7401690;19;20129;-73
2022/12/31 07:44:10;;;;;;;2.72;1.00;;;;;12.10;94114.00;;;;7399533;19;20156;-72
2022/12/31 07:46:56;;;;;;;2.03;1.13;;;;;12.10;94124.00;;;;7401924;19;20160;-72
2022/12/31 07:49:41;;;;;;;1.15;1.05;;;;;12.10;94127.00;;;;7402122;19;20162;-73
2022/12/31 07:52:09;;;;;;;1.40;1.10;;;;;12.20;94130.00;;;;7400149;19;20132;-74
2022/12/31 07:54:43;;;;;;;1.30;1.10;;;;;12.30;94142.00;;;;7401550;19;20185;-73
2022/12/31 07:57:18;;;;;;;1.52;1.13;;;;;12.30;94131.00;;;;7399564;19;20506;-73
2022/12/31 08:00:13;;;;;;;1.45;0.80;;;;;12.50;94133.00;;;;7399979;19;20183;-73
2022/12/31 08:03:20;;;;;;;1.15;1.00;;;;;12.40;94137.00;;;;7398961;19;20152;-73
2022/12/31 08:06:38;;;;;;;1.88;1.20;;;;;12.30;94138.00;;;;7400800;19;20153;-74
2022/12/31 08:09:37;;;;;;;2.47;0.93;;;;;12.40;94134.00;;;;7393140;19;20163;-73
2022/12/31 08:12:15;;;;;;;0.80;0.80;;;;;12.50;94136.00;;;;7395213;19;20147;-73
2022/12/31 08:14:46;;;;;;;2.88;1.00;;;;;12.30;94140.00;;;;7396896;19;20516;-74
2022/12/31 08:17:20;;;;;;;1.13;0.90;;;;;12.50;94149.00;;;;7396608;19;20551;-74
2022/12/31 08:19:49;;;;;;;2.33;1.40;;;;;12.50;94149.00;;;;7395018;19;20137;-73
2022/12/31 08:22:44;;;;;;;1.13;0.90;;;;;12.60;94160.00;;;;7395847;19;20129;-73
2022/12/31 08:25:28;;;;;;;1.90;1.10;;;;;12.60;94155.00;;;;7397433;19;20188;-73
2022/12/31 08:27:58;;;;;;;1.20;0.80;;;;;12.60;94149.00;;;;7396740;19;20254;-73
2022/12/31 08:31:06;;;;;;;1.85;0.80;;;;;12.70;94146.00;;;;7395317;19;20156;-72
2022/12/31 08:33:56;;;;;;;1.27;1.00;;;;;12.70;94159.00;;;;7395201;19;20151;-73
2022/12/31 08:36:53;;;;;;;1.02;0.93;;;;;12.60;94167.00;;;;7396005;19;20152;-73
2022/12/31 08:39:32;;;;;;;2.35;0.82;;;;;12.80;94187.00;;;;7394875;19;20152;-73
2022/12/31 08:42:30;;;;;;;1.23;1.10;;;;;12.80;94195.00;;;;7394105;19;20156;-73
2022/12/31 08:45:16;;;;;;;2.38;0.90;;;;;12.90;94193.00;;;;7393815;19;20154;-73
2022/12/31 08:48:00;;;;;;;0.82;0.75;;;;;12.80;94193.00;;;;7394301;19;20181;-73
2022/12/31 08:50:28;;;;;;;0.63;0.63;;;;;13.00;94183.00;;;;7391368;19;20582;-73
2022/12/31 08:53:02;;;;;;;0.90;0.82;;;;;13.10;94181.00;;;;7395315;19;20137;-73
2022/12/31 08:55:30;;;;;;;1.55;0.80;;;;;13.30;94177.00;;;;7393489;19;20152;-73
2022/12/31 08:58:21;;;;;;;1.63;1.00;;;;;13.50;94178.00;;;;7396116;19;20188;-73
2022/12/31 09:00:59;;;;;;;0.90;0.70;;;;;13.60;94170.00;;;;7388737;19;20152;-73
2022/12/31 09:04:01;;;;;;;1.05;0.90;;;;;14.30;94179.00;;;;7391441;19;20160;-73
2022/12/31 09:06:47;;;;;;;1.30;0.90;;;;;14.50;94177.00;;;;7392997;19;20158;-72
2022/12/31 09:09:35;;;;;;;0.82;0.60;;;;;14.80;94170.00;;;;7393839;19;20306;-72
2022/12/31 09:12:36;;;;;;;1.10;0.93;;;;;14.90;94169.00;;;;7394497;19;20137;-73
2022/12/31 09:15:32;;;;;;;2.70;0.98;;;;;15.50;94178.00;;;;7393237;19;20152;-73
2022/12/31 09:18:10;;;;;;;1.33;0.68;;;;;15.90;94173.00;;;;7395498;19;20157;-72
2022/12/31 09:20:38;;;;;;;0.90;0.85;;;;;15.90;94181.00;;;;7395101;19;20143;-73
2022/12/31 09:23:12;;;;;;;2.33;1.00;;;;;16.10;94176.00;;;;7393507;19;20133;-73
2022/12/31 09:26:23;;;;;;;1.27;0.90;;;;;16.10;94177.00;;;;7392278;19;20491;-73
2022/12/31 09:29:11;;;;;;;1.33;0.80;;;;;15.90;94179.00;;;;7391702;19;20133;-73
2022/12/31 09:32:17;;;;;;;2.25;0.90;;;;;15.20;94180.00;;;;7392221;19;20212;-72
2022/12/31 09:35:06;;;;;;;1.55;0.85;;;;;14.80;94183.00;;;;7393200;19;20493;-73
2022/12/31 09:37:55;;;;;;;2.00;1.02;;;;;14.60;94187.00;;;;7395688;19;20132;-72
2022/12/31 09:40:38;;;;;;;1.25;0.90;;;;;14.90;94187.00;;;;7394726;19;20500;-73
2022/12/31 09:43:30;;;;;;;0.80;0.80;;;;;15.00;94182.00;;;;7394063;19;20509;-72
2022/12/31 09:46:16;;;;;;;1.33;0.75;;;;;15.80;94182.00;;;;7393857;19;20452;-72
2022/12/31 09:49:14;;;;;;;1.50;0.98;;;;;16.40;94188.00;;;;7390759;19;20494;-72
2022/12/31 09:51:59;;;;;;;3.38;1.00;;;;;16.50;94203.00;;;;7395257;19;20132;-72
2022/12/31 09:54:48;;;;;;;0.80;0.80;;;;;15.70;94212.00;;;;7393405;19;20132;-72
2022/12/31 09:57:24;;;;;;;1.00;0.75;;;;;15.40;94211.00;;;;7392641;19;20160;-72
2022/12/31 10:00:19;;;;;;;1.20;0.90;;;;;15.20;94214.00;;;;7392572;19;20156;-72
2022/12/31 10:03:17;;;;;;;0.93;0.77;;;;;15.20;94213.00;;;;7391820;19;20169;-72
2022/12/31 10:06:38;;;;;;;0.90;0.80;;;;;15.50;94202.00;;;;7393022;19;20129;-74
2022/12/31 10:09:18;;;;;;;0.95;0.70;;;;;15.80;94203.00;;;;7390635;19;20155;-72
2022/12/31 10:12:13;;;;;;;0.75;0.75;;;;;16.00;94201.00;;;;7391228;19;20157;-72
2022/12/31 10:14:46;;;;;;;3.08;0.70;;;;;16.30;94191.00;;;;7386285;19;20160;-71
2022/12/31 10:17:35;;;;;;;1.10;0.80;;;;;16.80;94186.00;;;;7394138;19;20607;-72
2022/12/31 10:20:06;;;;;;;2.33;0.82;;;;;17.10;94198.00;;;;7392165;19;20132;-72
2022/12/31 10:22:53;;;;;;;0.80;0.73;;;;;17.40;94197.00;;;;7392570;19;20141;-71
2022/12/31 10:25:38;;;;;;;1.02;0.90;;;;;17.70;94200.00;;;;7390324;19;20152;-72
2022/12/31 10:28:39;;;;;;;1.08;0.82;;;;;17.40;94184.00;;;;7392869;19;20157;-72
2022/12/31 10:31:37;;;;;;;1.58;0.85;;;;;18.60;94179.00;;;;7390105;19;20550;-72
2022/12/31 10:34:14;;;;;;;0.90;0.90;;;;;18.60;94190.00;;;;7385610;19;20133;-72
2022/12/31 10:36:53;;;;;;;2.10;0.70;;;;;18.20;94166.00;;;;7392241;19;20457;-72
2022/12/31 10:39:55;;;;;;;0.60;0.60;;;;;17.90;94178.00;;;;7390099;19;20166;-72
2022/12/31 10:42:35;;;;;;;0.75;0.75;;;;;17.50;94171.00;;;;7390157;19;20141;-74
2022/12/31 10:45:28;;;;;;;0.98;0.80;;;;;17.30;94163.00;;;;7389617;19;20156;-71
2022/12/31 10:48:33;;;;;;;1.80;1.00;;;;;17.70;94176.00;;;;7392589;19;20133;-72
2022/12/31 10:51:32;;;;;;;2.42;0.85;;;;;17.80;94164.00;;;;7389122;19;20152;-72
2022/12/31 10:54:34;;;;;;;2.38;0.80;;;;;17.90;94173.00;;;;7401163;19;20164;-71
2022/12/31 10:57:45;;;;;;;1.20;1.00;;;;;18.00;94172.00;;;;7397878;19;20587;-72
2022/12/31 11:00:15;;;;;;;0.75;0.75;;;;;18.10;94158.00;;;;7398326;19;20468;-73
2022/12/31 11:03:34;;;;;;;0.65;0.65;;;;;18.10;94166.00;;;;7397085;19;20247;-73
2022/12/31 11:06:52;;;;;;;0.68;0.63;;;;;17.80;94164.00;;;;7393459;19;20611;-72
2022/12/31 11:10:07;;;;;;;1.23;0.95;;;;;18.00;94172.00;;;;7397369;19;20186;-72
2022/12/31 11:13:14;;;;;;;1.55;0.82;;;;;17.90;94177.00;;;;7396873;19;20140;-72
2022/12/31 11:15:54;;;;;;;1.10;0.80;;;;;17.50;94177.00;;;;7399788;19;20617;-72
2022/12/31 11:18:33;;;;;;;1.15;0.93;;;;;17.70;94166.00;;;;7399821;19;20532;-72
2022/12/31 11:21:22;;;;;;;0.95;0.50;;;;;17.50;94171.00;;;;7400372;19;20133;-73
2022/12/31 11:24:25;;;;;;;1.02;0.80;;;;;17.30;94163.00;;;;7399525;19;20136;-71
2022/12/31 11:27:07;;;;;;;1.75;0.88;;;;;17.60;94157.00;;;;7398667;19;20193;-72
2022/12/31 11:29:36;;;;;;;2.97;0.90;;;;;17.80;94155.00;;;;7399876;19;20149;-72
2022/12/31 11:32:21;;;;;;;1.45;1.00;;;;;17.90;94159.00;;;;7398041;19;20647;-72
2022/12/31 11:35:16;;;;;;;0.65;0.65;;;;;17.70;94148.00;;;;7396157;19;20133;-72
2022/12/31 11:38:01;;;;;;;0.65;0.65;;;;;17.90;94146.00;;;;7390715;19;20156;-72
2022/12/31 11:41:21;;;;;;;1.20;0.80;;;;;17.60;94147.00;;;;7397683;19;20140;-72
2022/12/31 11:44:09;;;;;;;1.13;0.90;;;;;18.00;94155.00;;;;7397734;19;20158;-72
2022/12/31 11:47:02;;;;;;;1.48;0.93;;;;;18.10;94147.00;;;;7397488;19;20453;-72
2022/12/31 11:49:59;;;;;;;3.47;1.00;;;;;17.90;94156.00;;;;7399977;19;20201;-71
2022/12/31 11:52:50;;;;;;;1.63;0.90;;;;;17.80;94149.00;;;;7400186;19;20612;-74
2022/12/31 11:55:41;;;;;;;3.10;0.95;;;;;17.80;94147.00;;;;7398653;19;20483;-73
2022/12/31 11:58:17;;;;;;;2.95;1.30;;;;;17.80;94136.00;;;;7400239;19;20144;-74
2022/12/31 12:01:03;;;;;;;1.75;1.38;;;;;18.20;94140.00;;;;7400846;19;20627;-74
2022/12/31 12:03:42;;;;;;;1.05;0.70;;;;;18.50;94130.00;;;;7394071;19;20184;-75
2022/12/31 12:06:22;;;;;;;3.42;0.75;;;;;18.50;94135.00;;;;7397480;19;20156;-74
2022/12/31 12:08:50;;;;;;;1.63;0.70;;;;;18.30;94148.00;;;;7397555;19;20611;-73
2022/12/31 12:11:27;;;;;;;0.63;0.60;;;;;18.10;94148.00;;;;7399947;19;20132;-75
2022/12/31 12:13:55;;;;;;;2.28;1.00;;;;;17.10;94152.00;;;;7398878;19;20161;-73
2022/12/31 12:16:25;;;;;;;2.30;1.00;;;;;16.90;94146.00;;;;7397883;19;20274;-75
2022/12/31 12:19:15;;;;;;;1.98;1.00;;;;;16.70;94144.00;;;;7396334;19;20587;-74
2022/12/31 12:21:47;;;;;;;1.10;1.00;;;;;17.00;94134.00;;;;7380404;19;20137;-74
2022/12/31 12:24:26;;;;;;;0.70;0.70;;;;;17.30;94134.00;;;;7393987;19;20140;-74
2022/12/31 12:26:54;;;;;;;0.93;0.80;;;;;17.30;94132.00;;;;7396946;19;20129;-74
2022/12/31 12:29:35;;;;;;;1.90;0.70;;;;;17.40;94132.00;;;;7396785;19;20124;-74
2022/12/31 12:32:06;;;;;;;2.03;1.00;;;;;17.40;94127.00;;;;7395255;19;20622;-74
2022/12/31 12:34:40;;;;;;;1.40;0.82;;;;;17.70;94120.00;;;;7393197;19;20148;-75
2022/12/31 12:37:33;;;;;;;0.70;0.70;;;;;18.00;94124.00;;;;7394160;19;20156;-74
2022/12/31 12:40:22;;;;;;;0.98;0.88;;;;;18.20;94127.00;;;;7395545;19;20129;-74
2022/12/31 12:43:00;;;;;;;0.80;0.80;;;;;18.60;94109.00;;;;7394488;19;20144;-74
2022/12/31 12:45:45;;;;;;;0.65;0.65;;;;;17.90;94122.00;;;;7390707;19;20476;-75
2022/12/31 12:48:40;;;;;;;0.85;0.80;;;;;17.40;94126.00;;;;7392406;19;20141;-72
2022/12/31 12:51:40;;;;;;;0.82;0.75;;;;;17.40;94129.00;;;;7389859;19;20240;-74
2022/12/31 12:54:31;;;;;;;1.25;0.80;;;;;17.00;94129.00;;;;7389340;19;20538;-73
2022/12/31 12:57:28;;;;;;;1.05;0.73;;;;;16.90;94135.00;;;;7390075;19;20140;-74
2022/12/31 13:00:05;;;;;;;0.88;0.75;;;;;16.90;94125.00;;;;7385184;19;20137;-74
2022/12/31 13:02:47;;;;;;;0.90;0.77;;;;;16.90;94123.00;;;;7390187;19;20137;-73
2022/12/31 13:05:49;;;;;;;0.73;0.65;;;;;16.70;94118.00;;;;7390664;19;20160;-74
2022/12/31 13:08:38;;;;;;;1.23;0.85;;;;;16.60;94113.00;;;;7391396;19;20155;-74
2022/12/31 13:11:35;;;;;;;0.88;0.70;;;;;16.70;94115.00;;;;7392634;19;20129;-74
2022/12/31 13:14:32;;;;;;;2.13;0.75;;;;;16.40;94124.00;;;;7391606;19;20312;-74
2022/12/31 13:17:23;;;;;;;0.85;0.80;;;;;16.30;94117.00;;;;7391548;19;20129;-74
2022/12/31 13:20:22;;;;;;;2.65;0.65;;;;;16.10;94124.00;;;;7393589;19;20160;-73
2022/12/31 13:22:54;;;;;;;2.45;0.70;;;;;16.00;94111.00;;;;7391054;19;20148;-73
2022/12/31 13:25:52;;;;;;;0.85;0.80;;;;;16.10;94107.00;;;;7389766;19;20188;-74
2022/12/31 13:28:23;;;;;;;1.55;0.85;;;;;16.00;94114.00;;;;7390180;19;20171;-73
2022/12/31 13:31:05;;;;;;;2.08;0.80;;;;;15.80;94115.00;;;;7391161;19;20479;-73
2022/12/31 13:33:47;;;;;;;0.60;0.57;;;;;15.80;94106.00;;;;7389311;19;20132;-73